Time;durP1;ratioP1;P1;durP2;ratioP2;P2;SDS_P1;SDS_P2;PMS_P1;PMS_P2;Temp;Humidity;BMP_temperature;BMP_pressure;BME280_temperature;BME280_humidity;BME280_pressure;Samples;Min_cycle;Max_cycle;Signal;HPM_P1;HPM_P2
2023/02/20 00:01:02;;;;;;;9.25;5.32;;;;;;;;;;5081419;28;20143;-88
2023/02/20 00:03:29;;;;;;;7.35;5.32;;;;;;;;;;5078791;28;20123;-87
2023/02/20 00:05:56;;;;;;;8.52;5.50;;;;;;;;;;5083163;28;20028;-88
2023/02/20 00:08:22;;;;;;;7.40;5.85;;;;;;;;;;5085540;28;20016;-87
2023/02/20 00:10:48;;;;;;;8.48;5.18;;;;;;;;;;5075183;28;20075;-87
2023/02/20 00:13:15;;;;;;;7.10;5.50;;;;;;;;;;5073164;28;20020;-87
2023/02/20 00:15:41;;;;;;;7.82;5.75;;;;;;;;;;5076366;28;20128;-88
2023/02/20 00:18:07;;;;;;;11.57;6.70;;;;;;;;;;5078805;28;20581;-88
2023/02/20 00:20:35;;;;;;;10.02;6.00;;;;;;;;;;5084862;28;20660;-87
2023/02/20 00:23:01;;;;;;;9.25;5.95;;;;;;;;;;5083851;28;20028;-88
2023/02/20 00:25:27;;;;;;;10.20;5.53;;;;;;;;;;5083395;28;20402;-88
2023/02/20 00:27:54;;;;;;;8.82;5.45;;;;;;;;;;5087306;28;20020;-88
2023/02/20 00:30:21;;;;;;;10.07;6.50;;;;;;;;;;5085160;28;20017;-88
2023/02/20 00:32:48;;;;;;;10.18;6.65;;;;;;;;;;5078568;28;20069;-88
2023/02/20 00:35:15;;;;;;;11.20;6.70;;;;;;;;;;5104251;28;20024;-88
2023/02/20 00:37:41;;;;;;;8.13;6.18;;;;;;;;;;5085901;28;20026;-88
2023/02/20 00:40:08;;;;;;;6.80;5.80;;;;;;;;;;5082023;28;20482;-88
2023/02/20 00:42:34;;;;;;;10.27;5.43;;;;;;;;;;5079559;28;20119;-89
2023/02/20 00:45:01;;;;;;;8.63;4.78;;;;;;;;;;5084562;28;20334;-88
2023/02/20 00:47:27;;;;;;;6.82;5.05;;;;;;;;;;5081406;28;20028;-87
2023/02/20 00:49:53;;;;;;;6.38;4.90;;;;;;;;;;5084069;28;20123;-88
2023/02/20 00:52:19;;;;;;;8.73;5.40;;;;;;;;;;5085606;28;20440;-87
2023/02/20 00:54:45;;;;;;;9.50;6.18;;;;;;;;;;5082125;28;20064;-88
2023/02/20 00:57:11;;;;;;;7.65;5.78;;;;;;;;;;5077545;28;20364;-87
2023/02/20 00:59:38;;;;;;;9.35;5.20;;;;;;;;;;5085421;28;20077;-88
2023/02/20 01:02:04;;;;;;;8.02;4.90;;;;;;;;;;5086438;28;20047;-88
2023/02/20 01:04:30;;;;;;;8.93;5.53;;;;;;;;;;5086317;28;20108;-88
2023/02/20 01:06:56;;;;;;;8.32;5.30;;;;;;;;;;5086466;28;20087;-88
2023/02/20 01:09:23;;;;;;;7.20;5.38;;;;;;;;;;5082133;28;20153;-87
2023/02/20 01:11:49;;;;;;;8.02;5.07;;;;;;;;;;5078138;28;20119;-88
2023/02/20 01:14:15;;;;;;;9.07;4.75;;;;;;;;;;5079877;28;20604;-88
2023/02/20 01:16:45;;;;;;;8.20;4.60;;;;;;;;;;5082847;28;20055;-88
2023/02/20 01:19:11;;;;;;;5.95;5.10;;;;;;;;;;5076072;28;20036;-87
2023/02/20 01:21:38;;;;;;;6.97;4.68;;;;;;;;;;5071931;28;20047;-87
2023/02/20 01:24:04;;;;;;;7.80;4.78;;;;;;;;;;5082259;28;20089;-88
2023/02/20 01:26:30;;;;;;;6.47;4.60;;;;;;;;;;5073250;28;20077;-86
2023/02/20 01:28:56;;;;;;;9.50;5.82;;;;;;;;;;5082586;28;20119;-87
2023/02/20 01:31:23;;;;;;;8.98;5.32;;;;;;;;;;5079859;28;20021;-87
2023/02/20 01:33:49;;;;;;;7.43;5.32;;;;;;;;;;5083928;28;20065;-87
2023/02/20 01:36:15;;;;;;;9.00;5.35;;;;;;;;;;5083514;28;20153;-87
2023/02/20 01:38:42;;;;;;;7.55;5.03;;;;;;;;;;5085477;28;20075;-87
2023/02/20 01:41:08;;;;;;;8.82;5.00;;;;;;;;;;5084327;28;20027;-88
2023/02/20 01:43:35;;;;;;;6.75;5.05;;;;;;;;;;5084977;28;20456;-88
2023/02/20 01:46:40;;;;;;;7.88;4.65;;;;;;;;;;5077786;28;20451;-88
2023/02/20 01:49:09;;;;;;;9.27;4.68;;;;;;;;;;4984519;28;20060;-88
2023/02/20 01:51:38;;;;;;;9.52;5.28;;;;;;;;;;4986992;28;20104;-88
2023/02/20 01:54:07;;;;;;;8.07;4.85;;;;;;;;;;5053867;28;20180;-88
2023/02/20 01:56:33;;;;;;;8.00;5.07;;;;;;;;;;5079275;28;20135;-88
2023/02/20 01:59:00;;;;;;;11.13;4.97;;;;;;;;;;5078327;28;20040;-87
2023/02/20 02:01:26;;;;;;;11.15;4.82;;;;;;;;;;5082972;28;20024;-88
2023/02/20 02:03:56;;;;;;;6.97;4.25;;;;;;;;;;5083534;28;20028;-88
2023/02/20 02:06:24;;;;;;;8.77;4.80;;;;;;;;;;5081654;28;20034;-89
2023/02/20 02:08:51;;;;;;;8.80;4.97;;;;;;;;;;5084310;28;20348;-88
2023/02/20 02:11:19;;;;;;;8.55;4.88;;;;;;;;;;5082919;28;20143;-88
2023/02/20 02:13:46;;;;;;;6.90;4.80;;;;;;;;;;5084506;28;20020;-89
2023/02/20 02:16:18;;;;;;;7.47;4.95;;;;;;;;;;5083628;28;20089;-87
2023/02/20 02:18:57;;;;;;;6.82;4.78;;;;;;;;;;5084164;28;20267;-87
2023/02/20 02:21:26;;;;;;;8.93;4.72;;;;;;;;;;5082491;28;20051;-87
2023/02/20 02:23:52;;;;;;;8.00;4.45;;;;;;;;;;5083090;28;20035;-89
2023/02/20 02:26:31;;;;;;;9.25;4.40;;;;;;;;;;5079004;28;20067;-87
2023/02/20 02:29:03;;;;;;;7.88;4.40;;;;;;;;;;5078600;28;20027;-87
2023/02/20 02:31:46;;;;;;;8.43;4.68;;;;;;;;;;5084817;28;20062;-87
2023/02/20 02:34:31;;;;;;;7.35;4.57;;;;;;;;;;5077740;28;20096;-88
2023/02/20 02:37:15;;;;;;;6.57;4.47;;;;;;;;;;5081771;28;20094;-87
2023/02/20 02:39:41;;;;;;;7.40;4.57;;;;;;;;;;5084982;28;20047;-87
2023/02/20 02:42:26;;;;;;;7.95;4.50;;;;;;;;;;5078793;28;20045;-88
2023/02/20 02:44:56;;;;;;;6.28;4.28;;;;;;;;;;5085570;28;20048;-88
2023/02/20 02:47:30;;;;;;;7.90;4.70;;;;;;;;;;5083629;28;20112;-88
2023/02/20 02:50:05;;;;;;;6.22;4.03;;;;;;;;;;5085605;28;20043;-88
2023/02/20 02:52:45;;;;;;;6.00;4.10;;;;;;;;;;5080992;28;20031;-88
2023/02/20 02:55:11;;;;;;;5.40;3.83;;;;;;;;;;5086162;28;20040;-87
2023/02/20 02:57:38;;;;;;;6.03;4.15;;;;;;;;;;5087120;28;20055;-87
2023/02/20 03:00:07;;;;;;;6.05;3.85;;;;;;;;;;5087449;28;20028;-87
2023/02/20 03:02:37;;;;;;;7.28;4.22;;;;;;;;;;5087091;28;20016;-87
2023/02/20 03:05:05;;;;;;;5.60;3.97;;;;;;;;;;5080948;28;20423;-87
2023/02/20 03:07:33;;;;;;;6.13;4.00;;;;;;;;;;5078060;28;20107;-87
2023/02/20 03:10:02;;;;;;;5.22;3.95;;;;;;;;;;5087399;28;20020;-87
2023/02/20 03:12:28;;;;;;;6.45;4.22;;;;;;;;;;5077892;28;20039;-86
2023/02/20 03:15:35;;;;;;;7.25;4.72;;;;;;;;;;5085151;28;20110;-86
2023/02/20 03:18:09;;;;;;;7.03;4.38;;;;;;;;;;5075508;28;20035;-87
2023/02/20 03:20:36;;;;;;;6.22;3.80;;;;;;;;;;5081992;28;20403;-86
2023/02/20 03:23:04;;;;;;;6.53;4.35;;;;;;;;;;5082241;28;20441;-86
2023/02/20 03:25:36;;;;;;;7.82;4.00;;;;;;;;;;5082151;28;20066;-88
2023/02/20 03:28:05;;;;;;;5.88;4.15;;;;;;;;;;5078440;28;20063;-88
2023/02/20 03:30:35;;;;;;;7.47;4.40;;;;;;;;;;5078658;28;20122;-88
2023/02/20 03:44:14;;;;;;;6.18;4.32;;;;;;;;;;5079559;28;20089;-86
2023/02/20 03:46:42;;;;;;;7.47;4.75;;;;;;;;;;5080432;28;20019;-87
2023/02/20 03:49:12;;;;;;;9.30;3.90;;;;;;;;;;5081911;28;20111;-86
2023/02/20 03:51:57;;;;;;;6.55;4.30;;;;;;;;;;5080959;28;20024;-88
2023/02/20 03:54:24;;;;;;;5.82;4.18;;;;;;;;;;5071075;28;20567;-86
2023/02/20 03:56:54;;;;;;;6.60;4.38;;;;;;;;;;5081933;28;20040;-87
2023/02/20 03:59:30;;;;;;;8.35;4.20;;;;;;;;;;5076729;28;20640;-87
2023/02/20 04:01:59;;;;;;;6.25;4.28;;;;;;;;;;5077534;28;20608;-87
2023/02/20 04:04:35;;;;;;;6.70;4.20;;;;;;;;;;5077926;28;20182;-88
2023/02/20 04:07:03;;;;;;;6.72;4.97;;;;;;;;;;5097319;28;20032;-88
2023/02/20 04:09:33;;;;;;;9.63;4.35;;;;;;;;;;5074337;28;20060;-86
2023/02/20 04:12:14;;;;;;;6.95;4.20;;;;;;;;;;5082864;28;20020;-88
2023/02/20 04:14:40;;;;;;;7.55;4.40;;;;;;;;;;5080789;28;20031;-88
2023/02/20 04:17:09;;;;;;;7.82;5.40;;;;;;;;;;5080778;28;20043;-88
2023/02/20 04:19:36;;;;;;;7.50;3.80;;;;;;;;;;5081513;28;20466;-88
2023/02/20 04:22:07;;;;;;;7.80;4.45;;;;;;;;;;5082495;28;20019;-88
2023/02/20 04:25:03;;;;;;;5.45;4.13;;;;;;;;;;5078859;28;20817;-88
2023/02/20 04:27:30;;;;;;;12.02;4.10;;;;;;;;;;5065041;28;20048;-87
2023/02/20 04:29:59;;;;;;;8.05;3.97;;;;;;;;;;5079038;28;20077;-87
2023/02/20 04:32:27;;;;;;;6.10;4.88;;;;;;;;;;5095111;28;20028;-88
2023/02/20 04:34:53;;;;;;;9.82;5.68;;;;;;;;;;5080478;28;20036;-88
2023/02/20 04:37:19;;;;;;;6.57;4.60;;;;;;;;;;5076840;28;20111;-87
2023/02/20 04:39:46;;;;;;;8.38;4.35;;;;;;;;;;5077970;28;20033;-86
2023/02/20 04:42:12;;;;;;;9.00;4.50;;;;;;;;;;5081106;28;20106;-86
2023/02/20 04:44:38;;;;;;;5.60;3.78;;;;;;;;;;5079748;28;20055;-87
2023/02/20 04:47:06;;;;;;;5.38;4.03;;;;;;;;;;5076888;28;20107;-88
2023/02/20 04:49:33;;;;;;;7.78;4.32;;;;;;;;;;5081082;28;20407;-87
2023/02/20 04:51:59;;;;;;;5.70;3.90;;;;;;;;;;5078535;28;20115;-87
2023/02/20 04:54:32;;;;;;;5.55;4.00;;;;;;;;;;5076792;28;20059;-87
2023/02/20 04:56:58;;;;;;;;;;;;;;;;;;5081448;28;20038;-87
2023/02/20 04:59:24;;;;;;;6.47;4.20;;;;;;;;;;5078186;28;19974;-86
2023/02/20 05:01:53;;;;;;;6.13;4.07;;;;;;;;;;5077181;28;20543;-87
2023/02/20 05:04:20;;;;;;;6.32;4.22;;;;;;;;;;5070803;28;20036;-86
2023/02/20 05:06:48;;;;;;;5.47;4.13;;;;;;;;;;5077919;28;20119;-86
2023/02/20 05:09:14;;;;;;;5.80;4.03;;;;;;;;;;5078739;28;20729;-85
2023/02/20 05:11:41;;;;;;;7.65;4.32;;;;;;;;;;5077041;28;20028;-86
2023/02/20 05:14:07;;;;;;;6.28;4.05;;;;;;;;;;5085085;28;20020;-86
2023/02/20 05:16:33;;;;;;;7.05;4.25;;;;;;;;;;5082995;28;20031;-85
2023/02/20 05:19:02;;;;;;;6.50;3.97;;;;;;;;;;5073223;28;20131;-86
2023/02/20 05:24:13;;;;;;;6.10;3.90;;;;;;;;;;5084072;28;20082;-85
2023/02/20 05:26:39;;;;;;;5.60;3.83;;;;;;;;;;5096200;28;20048;-86
2023/02/20 05:29:08;;;;;;;6.15;4.18;;;;;;;;;;5073985;28;20024;-86
2023/02/20 05:31:35;;;;;;;9.68;4.28;;;;;;;;;;5082733;28;20066;-85
2023/02/20 05:34:01;;;;;;;7.30;4.68;;;;;;;;;;5082157;28;20154;-85
2023/02/20 05:36:27;;;;;;;6.55;4.00;;;;;;;;;;5083066;28;20438;-87
2023/02/20 05:38:53;;;;;;;6.10;4.00;;;;;;;;;;5079842;28;20036;-85
2023/02/20 05:41:20;;;;;;;6.30;4.30;;;;;;;;;;5082189;28;20089;-86
2023/02/20 05:43:47;;;;;;;8.30;4.20;;;;;;;;;;5082638;28;20081;-86
2023/02/20 05:46:14;;;;;;;5.97;4.05;;;;;;;;;;5083884;28;20497;-86
2023/02/20 05:48:40;;;;;;;6.38;4.00;;;;;;;;;;5083504;28;20051;-86
2023/02/20 05:51:06;;;;;;;6.63;4.18;;;;;;;;;;5081694;28;20059;-86
2023/02/20 05:53:32;;;;;;;8.82;4.15;;;;;;;;;;5081146;28;20047;-88
2023/02/20 05:55:59;;;;;;;6.50;4.57;;;;;;;;;;5077537;28;20040;-86
2023/02/20 05:58:25;;;;;;;8.73;5.15;;;;;;;;;;5076255;28;20029;-85
2023/02/20 06:00:54;;;;;;;6.38;4.45;;;;;;;;;;5080536;28;20072;-86
2023/02/20 06:03:20;;;;;;;10.27;4.30;;;;;;;;;;5082467;28;20039;-86
2023/02/20 06:05:47;;;;;;;7.80;4.75;;;;;;;;;;5081662;28;20017;-86
2023/02/20 06:08:13;;;;;;;8.25;4.50;;;;;;;;;;5082046;28;20070;-87
2023/02/20 06:10:39;;;;;;;7.45;4.38;;;;;;;;;;5073100;28;20051;-85
2023/02/20 06:13:05;;;;;;;5.95;4.30;;;;;;;;;;5078403;28;20052;-84
2023/02/20 06:15:31;;;;;;;8.30;4.55;;;;;;;;;;5080546;28;20020;-85
2023/02/20 06:17:58;;;;;;;8.57;4.90;;;;;;;;;;5079113;28;21132;-86
2023/02/20 06:20:24;;;;;;;12.32;4.65;;;;;;;;;;5077827;28;20032;-85
2023/02/20 06:22:50;;;;;;;7.68;5.00;;;;;;;;;;5079735;28;20035;-86
2023/02/20 06:25:16;;;;;;;7.35;5.03;;;;;;;;;;5076052;28;20533;-84
2023/02/20 06:27:43;;;;;;;6.63;5.32;;;;;;;;;;5073152;28;20024;-85
2023/02/20 06:30:09;;;;;;;9.20;5.78;;;;;;;;;;5078719;28;20119;-85
2023/02/20 06:32:35;;;;;;;7.47;5.63;;;;;;;;;;5080454;28;20066;-84
2023/02/20 06:35:02;;;;;;;8.30;5.50;;;;;;;;;;5080391;28;20028;-85
2023/02/20 06:37:28;;;;;;;8.23;5.47;;;;;;;;;;5078829;28;20071;-85
2023/02/20 06:39:54;;;;;;;9.85;5.25;;;;;;;;;;5078749;28;20042;-84
2023/02/20 06:42:21;;;;;;;11.05;5.78;;;;;;;;;;5075646;28;20119;-84
2023/02/20 06:44:47;;;;;;;8.13;5.65;;;;;;;;;;5075032;28;20028;-85
2023/02/20 06:56:32;;;;;;;8.00;5.15;;;;;;;;;;5070574;28;20055;-85
2023/02/20 06:59:02;;;;;;;7.25;5.57;;;;;;;;;;5077948;28;20048;-83
2023/02/20 07:01:29;;;;;;;9.43;5.95;;;;;;;;;;5076615;28;20117;-83
2023/02/20 07:03:56;;;;;;;9.82;5.38;;;;;;;;;;5074162;28;20477;-83
2023/02/20 07:06:24;;;;;;;6.43;5.13;;;;;;;;;;5077686;28;20063;-85
2023/02/20 07:08:50;;;;;;;8.30;4.95;;;;;;;;;;5092230;28;20036;-84
2023/02/20 07:11:18;;;;;;;8.77;5.22;;;;;;;;;;5077893;28;20032;-84
2023/02/20 07:13:44;;;;;;;8.65;5.32;;;;;;;;;;5078855;28;20310;-84
2023/02/20 07:16:10;;;;;;;7.80;5.82;;;;;;;;;;5071821;28;20028;-84
2023/02/20 07:18:37;;;;;;;9.68;6.63;;;;;;;;;;5079201;28;20166;-85
2023/02/20 07:21:03;;;;;;;8.82;6.13;;;;;;;;;;5070483;28;20032;-84
2023/02/20 07:23:29;;;;;;;8.68;6.68;;;;;;;;;;5079433;28;20112;-85
2023/02/20 07:25:55;;;;;;;11.60;8.70;;;;;;;;;;5079732;28;20305;-85
2023/02/20 07:28:22;;;;;;;13.55;9.60;;;;;;;;;;5077761;28;20032;-84
2023/02/20 07:30:48;;;;;;;13.40;8.88;;;;;;;;;;5079103;28;20143;-85
2023/02/20 07:33:15;;;;;;;10.88;8.88;;;;;;;;;;5079566;28;20353;-86
2023/02/20 07:35:41;;;;;;;12.63;9.05;;;;;;;;;;5077818;28;20382;-84
2023/02/20 07:38:07;;;;;;;14.20;9.10;;;;;;;;;;5078242;28;20614;-85
2023/02/20 07:40:33;;;;;;;11.48;8.85;;;;;;;;;;5078881;28;20489;-84
2023/02/20 07:43:00;;;;;;;14.60;9.70;;;;;;;;;;5076465;28;20532;-84
2023/02/20 07:45:26;;;;;;;19.73;13.40;;;;;;;;;;5072400;28;20025;-84
2023/02/20 07:47:52;;;;;;;19.15;12.70;;;;;;;;;;5070398;28;20131;-84
2023/02/20 07:50:19;;;;;;;17.63;12.02;;;;;;;;;;5076335;28;20028;-83
2023/02/20 07:52:45;;;;;;;16.35;10.98;;;;;;;;;;5078160;28;20486;-84
2023/02/20 07:55:15;;;;;;;14.32;10.48;;;;;;;;;;5076816;28;20086;-85
2023/02/20 07:57:41;;;;;;;16.33;9.98;;;;;;;;;;5105597;27;20139;-84
2023/02/20 08:00:08;;;;;;;13.93;10.43;;;;;;;;;;5070909;28;20039;-85
2023/02/20 08:02:35;;;;;;;12.77;9.95;;;;;;;;;;5076330;28;20012;-84
2023/02/20 08:05:01;;;;;;;19.55;11.25;;;;;;;;;;5080882;28;20024;-84
2023/02/20 08:07:27;;;;;;;16.70;11.18;;;;;;;;;;5073491;28;20027;-83
2023/02/20 08:09:53;;;;;;;16.50;10.88;;;;;;;;;;5075294;28;20044;-83
2023/02/20 08:12:19;;;;;;;15.50;10.90;;;;;;;;;;5072249;28;20408;-82
2023/02/20 08:14:46;;;;;;;17.27;10.80;;;;;;;;;;5091207;28;20024;-84
2023/02/20 08:17:12;;;;;;;13.23;10.05;;;;;;;;;;5088336;28;20067;-82
2023/02/20 08:19:40;;;;;;;15.23;12.77;;;;;;;;;;5057088;28;20071;-84
2023/02/20 08:22:06;;;;;;;15.93;11.48;;;;;;;;;;5074124;28;20032;-84
2023/02/20 08:24:33;;;;;;;15.85;11.15;;;;;;;;;;5089198;28;20537;-83
2023/02/20 08:26:59;;;;;;;16.33;12.55;;;;;;;;;;5092831;28;20063;-82
2023/02/20 08:29:25;;;;;;;20.25;12.57;;;;;;;;;;5074684;28;20024;-83
2023/02/20 08:31:51;;;;;;;14.88;11.93;;;;;;;;;;5072363;28;20081;-84
2023/02/20 08:34:17;;;;;;;19.92;13.90;;;;;;;;;;5070325;28;20016;-85
2023/02/20 08:36:43;;;;;;;19.10;15.23;;;;;;;;;;5076419;28;20414;-83
2023/02/20 08:39:10;;;;;;;17.52;11.45;;;;;;;;;;5071783;28;20062;-84
2023/02/20 08:41:42;;;;;;;17.35;10.35;;;;;;;;;;5070780;28;20533;-84
2023/02/20 08:44:08;;;;;;;;;;;;;;;;;;5071091;28;20032;-84
2023/02/20 08:46:34;;;;;;;14.88;10.05;;;;;;;;;;5088761;28;20029;-85
2023/02/20 08:49:01;;;;;;;10.18;7.85;;;;;;;;;;5073203;28;20036;-84
2023/02/20 08:51:30;;;;;;;17.10;10.75;;;;;;;;;;5074496;28;20664;-84
2023/02/20 08:53:56;;;;;;;15.75;12.10;;;;;;;;;;5077025;28;20028;-84
2023/02/20 08:56:22;;;;;;;18.38;12.80;;;;;;;;;;5071625;28;20534;-84
2023/02/20 08:58:49;;;;;;;20.95;12.38;;;;;;;;;;5071450;28;20102;-83
2023/02/20 09:01:15;;;;;;;17.42;12.82;;;;;;;;;;5068963;28;20058;-85
2023/02/20 09:03:42;;;;;;;15.43;11.75;;;;;;;;;;5074967;28;20124;-84
2023/02/20 09:06:08;;;;;;;16.90;11.55;;;;;;;;;;5072771;28;20024;-85
2023/02/20 09:08:34;;;;;;;17.58;11.70;;;;;;;;;;5087988;28;20119;-82
2023/02/20 09:11:01;;;;;;;15.65;11.30;;;;;;;;;;5071201;28;20043;-84
2023/02/20 09:13:27;;;;;;;17.20;11.93;;;;;;;;;;5067889;28;20595;-84
2023/02/20 09:15:53;;;;;;;23.10;14.10;;;;;;;;;;5071052;28;20597;-85
2023/02/20 09:18:20;;;;;;;25.55;16.95;;;;;;;;;;5073189;28;20020;-84
2023/02/20 09:20:47;;;;;;;24.05;17.02;;;;;;;;;;5074419;28;20048;-83
2023/02/20 09:23:13;;;;;;;22.92;16.08;;;;;;;;;;5072777;28;20359;-85
2023/02/20 09:25:39;;;;;;;18.60;14.88;;;;;;;;;;5075834;28;20422;-85
2023/02/20 09:28:05;;;;;;;23.60;13.48;;;;;;;;;;5094580;28;20403;-85
2023/02/20 09:30:32;;;;;;;18.98;13.48;;;;;;;;;;5069672;28;20028;-86
2023/02/20 09:32:58;;;;;;;19.40;14.38;;;;;;;;;;5075500;28;20051;-85
2023/02/20 09:35:29;;;;;;;18.50;13.70;;;;;;;;;;5077467;28;20536;-85
2023/02/20 09:37:56;;;;;;;21.58;14.02;;;;;;;;;;5077175;28;20281;-83
2023/02/20 09:40:26;;;;;;;16.42;13.23;;;;;;;;;;5070442;28;20383;-85
2023/02/20 09:42:55;;;;;;;17.00;13.15;;;;;;;;;;5077521;28;20103;-83
2023/02/20 09:45:24;;;;;;;17.70;11.63;;;;;;;;;;5093367;28;20451;-85
2023/02/20 09:47:54;;;;;;;16.00;11.40;;;;;;;;;;5078482;28;20070;-83
2023/02/20 09:50:30;;;;;;;18.50;11.55;;;;;;;;;;5073633;28;20024;-84
2023/02/20 09:53:26;;;;;;;18.33;12.93;;;;;;;;;;5070626;28;20073;-85
2023/02/20 09:55:53;;;;;;;18.35;12.57;;;;;;;;;;5066249;28;20050;-83
2023/02/20 09:58:22;;;;;;;16.58;11.45;;;;;;;;;;5095332;28;20059;-82
2023/02/20 10:00:48;;;;;;;17.30;12.20;;;;;;;;;;5073534;28;20429;-85
2023/02/20 10:03:34;;;;;;;19.75;12.10;;;;;;;;;;5073470;28;20025;-83
2023/02/20 10:06:01;;;;;;;13.80;11.25;;;;;;;;;;5073989;28;20524;-85
2023/02/20 10:08:27;;;;;;;16.42;12.30;;;;;;;;;;5089182;28;20095;-84
2023/02/20 10:10:54;;;;;;;17.52;13.45;;;;;;;;;;5077282;28;20024;-84
2023/02/20 10:13:26;;;;;;;17.48;13.05;;;;;;;;;;5075900;28;20532;-83
2023/02/20 10:16:03;;;;;;;20.48;14.73;;;;;;;;;;5077830;28;20059;-82
2023/02/20 10:18:48;;;;;;;17.58;13.05;;;;;;;;;;5089912;28;20150;-84
2023/02/20 10:21:28;;;;;;;18.52;12.15;;;;;;;;;;5092734;28;20035;-84
2023/02/20 10:23:59;;;;;;;17.98;13.50;;;;;;;;;;5072407;28;20032;-84
2023/02/20 10:26:29;;;;;;;15.35;11.27;;;;;;;;;;5076373;28;20077;-83
2023/02/20 10:28:59;;;;;;;17.73;12.30;;;;;;;;;;5078187;28;20024;-82
2023/02/20 10:31:29;;;;;;;20.98;14.07;;;;;;;;;;5072541;28;20609;-85
2023/02/20 10:34:01;;;;;;;17.27;13.85;;;;;;;;;;5073784;28;20039;-84
2023/02/20 10:36:34;;;;;;;15.13;12.38;;;;;;;;;;5089079;28;20016;-85
2023/02/20 10:39:11;;;;;;;21.05;13.80;;;;;;;;;;5073529;28;20047;-85
2023/02/20 10:41:43;;;;;;;28.50;16.83;;;;;;;;;;5090178;28;20034;-84
2023/02/20 10:44:19;;;;;;;19.95;14.52;;;;;;;;;;5079143;28;20290;-85
2023/02/20 10:46:57;;;;;;;19.92;14.55;;;;;;;;;;5075663;28;20131;-85
2023/02/20 10:49:46;;;;;;;19.05;13.65;;;;;;;;;;5076071;28;20024;-85
2023/02/20 10:52:15;;;;;;;18.20;13.82;;;;;;;;;;5088504;28;20024;-86
2023/02/20 10:54:46;;;;;;;19.00;14.65;;;;;;;;;;5076671;28;20046;-85
2023/02/20 10:57:12;;;;;;;19.95;13.30;;;;;;;;;;5078338;28;20151;-86
2023/02/20 10:59:41;;;;;;;15.57;11.07;;;;;;;;;;5076006;28;20216;-84
2023/02/20 11:02:14;;;;;;;17.05;11.80;;;;;;;;;;5080017;28;20752;-85
2023/02/20 11:04:42;;;;;;;14.52;11.05;;;;;;;;;;5090209;28;20031;-84
2023/02/20 11:07:17;;;;;;;16.17;11.70;;;;;;;;;;5079575;28;20555;-83
2023/02/20 11:09:43;;;;;;;16.23;11.45;;;;;;;;;;5078043;28;20292;-85
2023/02/20 11:12:20;;;;;;;16.67;11.38;;;;;;;;;;5076020;28;20062;-84
2023/02/20 11:14:48;;;;;;;14.52;11.95;;;;;;;;;;5077868;28;20028;-85
2023/02/20 11:17:15;;;;;;;17.23;12.13;;;;;;;;;;5078819;28;20583;-84
2023/02/20 11:19:47;;;;;;;14.25;10.60;;;;;;;;;;5074722;28;20475;-83
2023/02/20 11:22:14;;;;;;;13.70;10.65;;;;;;;;;;5078686;28;20509;-84
2023/02/20 11:24:46;;;;;;;14.65;10.10;;;;;;;;;;5075448;28;20543;-83
2023/02/20 11:27:18;;;;;;;12.52;9.68;;;;;;;;;;5091873;28;20051;-82
2023/02/20 11:29:55;;;;;;;14.65;10.68;;;;;;;;;;5069558;28;20115;-84
2023/02/20 11:32:28;;;;;;;15.00;10.23;;;;;;;;;;5088258;28;20035;-82
2023/02/20 11:35:03;;;;;;;12.27;8.70;;;;;;;;;;5076549;28;20052;-84
2023/02/20 11:37:30;;;;;;;11.63;8.80;;;;;;;;;;5078060;28;20545;-83
2023/02/20 11:39:58;;;;;;;11.43;8.32;;;;;;;;;;5079024;28;20048;-83
2023/02/20 11:42:31;;;;;;;10.88;7.80;;;;;;;;;;5076973;28;20051;-84
2023/02/20 11:45:15;;;;;;;10.40;8.05;;;;;;;;;;5091836;28;20020;-83
2023/02/20 11:47:42;;;;;;;12.65;7.88;;;;;;;;;;5071582;28;20017;-82
2023/02/20 11:50:16;;;;;;;9.77;6.38;;;;;;;;;;5075638;28;20024;-84
2023/02/20 11:52:55;;;;;;;9.02;7.07;;;;;;;;;;5089792;28;20020;-84
2023/02/20 11:55:23;;;;;;;10.15;7.40;;;;;;;;;;5074222;28;20072;-83
2023/02/20 11:57:49;;;;;;;11.25;7.32;;;;;;;;;;5072841;28;20059;-84
2023/02/20 12:00:26;;;;;;;9.25;6.90;;;;;;;;;;5091300;28;20113;-84
2023/02/20 12:03:18;;;;;;;12.52;7.60;;;;;;;;;;5074348;28;20051;-83
2023/02/20 12:05:46;;;;;;;9.73;6.70;;;;;;;;;;5065020;28;20506;-83
2023/02/20 12:08:31;;;;;;;11.00;6.90;;;;;;;;;;5075968;28;20019;-83
2023/02/20 12:11:03;;;;;;;9.55;7.13;;;;;;;;;;5075638;28;20024;-82
2023/02/20 12:13:30;;;;;;;8.25;6.40;;;;;;;;;;5077651;28;20024;-83
2023/02/20 12:16:08;;;;;;;8.50;6.63;;;;;;;;;;5073020;28;20033;-84
2023/02/20 12:18:56;;;;;;;8.48;6.50;;;;;;;;;;5069271;28;20283;-84
2023/02/20 12:21:29;;;;;;;9.43;6.15;;;;;;;;;;5070938;28;20024;-84
2023/02/20 12:24:14;;;;;;;8.52;5.65;;;;;;;;;;5075646;28;20801;-84
2023/02/20 12:26:43;;;;;;;9.32;6.63;;;;;;;;;;5071653;28;20062;-84
2023/02/20 12:29:26;;;;;;;7.90;6.03;;;;;;;;;;5072661;28;20055;-84
2023/02/20 12:32:11;;;;;;;10.77;6.40;;;;;;;;;;5107995;27;20661;-85
2023/02/20 12:34:56;;;;;;;11.13;5.88;;;;;;;;;;5077734;28;20565;-83
2023/02/20 12:37:41;;;;;;;7.28;5.68;;;;;;;;;;5074231;28;20500;-83
2023/02/20 12:40:34;;;;;;;8.60;6.25;;;;;;;;;;5068093;28;20040;-84
2023/02/20 12:43:03;;;;;;;10.85;6.80;;;;;;;;;;5062426;28;20067;-85
2023/02/20 12:45:32;;;;;;;9.70;5.80;;;;;;;;;;5092896;28;20147;-85
2023/02/20 12:48:28;;;;;;;8.75;6.20;;;;;;;;;;5073894;28;20034;-84
2023/02/20 12:51:07;;;;;;;7.47;5.78;;;;;;;;;;5065909;28;20449;-85
2023/02/20 12:53:40;;;;;;;6.60;5.65;;;;;;;;;;5086065;28;20020;-84
2023/02/20 12:56:09;;;;;;;7.25;5.63;;;;;;;;;;5078279;28;20044;-84
2023/02/20 12:58:55;;;;;;;7.55;5.50;;;;;;;;;;5071650;28;20032;-84
2023/02/20 13:01:22;;;;;;;7.22;5.88;;;;;;;;;;5090424;28;20051;-85
2023/02/20 13:04:06;;;;;;;7.00;5.45;;;;;;;;;;5067829;28;20135;-83
2023/02/20 13:06:34;;;;;;;7.28;5.15;;;;;;;;;;5077074;28;20564;-84
2023/02/20 13:09:13;;;;;;;7.43;6.00;;;;;;;;;;5071195;28;20590;-84
2023/02/20 13:11:44;;;;;;;6.80;5.53;;;;;;;;;;5091862;28;20024;-83
2023/02/20 13:14:13;;;;;;;9.63;5.90;;;;;;;;;;5075683;28;20074;-84
2023/02/20 13:16:54;;;;;;;8.57;6.65;;;;;;;;;;5073093;28;20068;-84
2023/02/20 13:19:28;;;;;;;6.68;5.30;;;;;;;;;;5073212;28;20508;-84
2023/02/20 13:21:56;;;;;;;7.43;5.88;;;;;;;;;;5067485;28;20492;-84
2023/02/20 13:24:22;;;;;;;10.05;6.30;;;;;;;;;;5078471;28;20051;-84
2023/02/20 13:26:48;;;;;;;8.77;6.07;;;;;;;;;;5075239;28;20028;-85
2023/02/20 13:29:17;;;;;;;6.80;5.13;;;;;;;;;;5078150;28;20452;-84
2023/02/20 13:31:44;;;;;;;7.95;5.05;;;;;;;;;;5080573;28;20024;-84
2023/02/20 13:34:10;;;;;;;8.85;5.57;;;;;;;;;;5078883;28;20505;-82
2023/02/20 13:36:40;;;;;;;7.57;5.43;;;;;;;;;;5077927;28;20182;-84
2023/02/20 13:39:21;;;;;;;7.57;5.45;;;;;;;;;;5079413;28;20066;-83
2023/02/20 13:41:53;;;;;;;5.75;5.07;;;;;;;;;;5093782;28;20208;-84
2023/02/20 13:44:28;;;;;;;6.85;4.90;;;;;;;;;;5077050;28;20458;-84
2023/02/20 13:47:05;;;;;;;8.15;5.22;;;;;;;;;;5076132;28;20078;-84
2023/02/20 13:49:44;;;;;;;7.82;5.00;;;;;;;;;;5092169;28;20024;-83
2023/02/20 13:52:29;;;;;;;6.70;5.07;;;;;;;;;;5098479;28;20393;-84
2023/02/20 13:55:12;;;;;;;10.55;7.20;;;;;;;;;;5079371;28;20048;-84
2023/02/20 13:57:45;;;;;;;40.30;18.42;;;;;;;;;;5093052;28;20024;-85
2023/02/20 14:00:22;;;;;;;16.60;8.43;;;;;;;;;;5092285;28;20742;-84
2023/02/20 14:02:48;;;;;;;8.23;5.95;;;;;;;;;;5089418;28;20071;-84
2023/02/20 14:05:26;;;;;;;6.63;4.95;;;;;;;;;;5109402;27;20067;-83
2023/02/20 14:07:52;;;;;;;7.35;5.25;;;;;;;;;;5073325;28;20021;-83
2023/02/20 14:10:28;;;;;;;6.72;4.70;;;;;;;;;;5077070;28;20490;-85
2023/02/20 14:12:59;;;;;;;7.57;4.97;;;;;;;;;;5072754;28;20055;-85
2023/02/20 14:15:25;;;;;;;7.32;4.57;;;;;;;;;;5078588;28;20031;-84
2023/02/20 14:17:53;;;;;;;5.82;4.70;;;;;;;;;;5078572;28;20082;-85
2023/02/20 14:20:31;;;;;;;9.15;5.13;;;;;;;;;;5079781;28;20040;-85
2023/02/20 14:23:08;;;;;;;8.70;5.80;;;;;;;;;;5081114;28;20028;-86
2023/02/20 14:25:34;;;;;;;6.70;5.22;;;;;;;;;;5069128;28;20260;-84
2023/02/20 14:28:05;;;;;;;6.57;4.85;;;;;;;;;;5079405;28;20020;-85
2023/02/20 14:30:32;;;;;;;7.30;4.63;;;;;;;;;;5077596;28;20060;-85
2023/02/20 14:33:00;;;;;;;6.50;4.85;;;;;;;;;;5077249;28;20036;-86
2023/02/20 14:35:26;;;;;;;6.60;4.60;;;;;;;;;;5080391;28;20409;-84
2023/02/20 14:37:53;;;;;;;7.68;5.95;;;;;;;;;;5074715;28;20169;-84
2023/02/20 14:40:25;;;;;;;8.88;5.13;;;;;;;;;;5077492;28;20071;-85
2023/02/20 14:42:51;;;;;;;;;;;;;;;;;;5080910;28;20390;-86
2023/02/20 14:45:25;;;;;;;9.65;5.03;;;;;;;;;;5080968;28;20385;-85
2023/02/20 14:47:56;;;;;;;5.28;4.18;;;;;;;;;;5076613;28;20455;-86
2023/02/20 14:50:22;;;;;;;4.57;4.05;;;;;;;;;;5095588;28;20363;-86
2023/02/20 14:53:00;;;;;;;12.52;4.05;;;;;;;;;;5079352;28;20173;-85
2023/02/20 14:55:26;;;;;;;6.82;4.78;;;;;;;;;;5078699;28;20098;-85
2023/02/20 14:57:53;;;;;;;9.73;4.55;;;;;;;;;;5065089;28;20063;-86
2023/02/20 15:00:22;;;;;;;6.93;4.53;;;;;;;;;;5076759;28;20117;-85
2023/02/20 15:02:51;;;;;;;5.10;4.03;;;;;;;;;;5080686;28;20119;-85
2023/02/20 15:05:20;;;;;;;6.45;4.05;;;;;;;;;;5073637;28;20057;-84
2023/02/20 15:07:46;;;;;;;15.38;5.00;;;;;;;;;;5080345;28;20081;-85
2023/02/20 15:10:31;;;;;;;7.30;4.72;;;;;;;;;;5078723;28;20308;-84
2023/02/20 15:13:00;;;;;;;6.57;4.35;;;;;;;;;;5091898;28;20107;-84
2023/02/20 15:15:28;;;;;;;7.40;4.43;;;;;;;;;;5079015;28;20024;-86